Time;durP1;ratioP1;P1;durP2;ratioP2;P2;SDS_P1;SDS_P2;PMS_P1;PMS_P2;Temp;Humidity;BMP_temperature;BMP_pressure;BME280_temperature;BME280_humidity;BME280_pressure;Samples;Min_cycle;Max_cycle;Signal;HPM_P1;HPM_P2
2021/04/30 00:00:09;;;;;;;3.83;1.70;;;15.40;54.20;;;;;;5092668;28;20401;-56
2021/04/30 00:02:36;;;;;;;3.00;1.15;;;15.30;54.20;;;;;;5092813;28;20020;-55
2021/04/30 00:05:02;;;;;;;5.53;1.90;;;;;;;;;;5093005;28;20024;-56
2021/04/30 00:07:28;;;;;;;3.35;1.63;;;15.40;76.50;;;;;;5092505;28;20515;-56
2021/04/30 00:09:53;;;;;;;2.60;1.20;;;15.30;54.30;;;;;;5092697;28;20016;-57
2021/04/30 00:12:19;;;;;;;3.63;1.42;;;15.30;54.30;;;;;;5092778;28;20112;-54
2021/04/30 00:14:44;;;;;;;1.58;1.20;;;15.30;54.30;;;;;;5092913;28;20472;-56
2021/04/30 00:17:10;;;;;;;3.60;1.27;;;15.30;54.30;;;;;;5092639;28;20110;-56
2021/04/30 00:19:36;;;;;;;2.88;1.38;;;15.30;54.30;;;;;;5092787;28;20473;-56
2021/04/30 00:22:01;;;;;;;5.13;1.55;;;15.30;54.40;;;;;;5091365;28;20016;-55
2021/04/30 00:24:27;;;;;;;1.85;1.23;;;15.80;54.70;;;;;;5092352;28;20024;-56
2021/04/30 00:26:52;;;;;;;3.72;1.40;;;15.30;54.40;;;;;;5092538;28;20108;-56
2021/04/30 00:29:18;;;;;;;4.40;1.77;;;15.30;54.40;;;;;;5092834;28;20023;-56
2021/04/30 00:31:44;;;;;;;2.83;1.38;;;15.30;54.40;;;;;;5091249;28;20380;-56
2021/04/30 00:34:09;;;;;;;2.33;1.42;;;15.30;54.40;;;;;;5092436;28;20020;-56
2021/04/30 00:36:35;;;;;;;2.28;1.50;;;15.30;54.50;;;;;;5092348;28;20048;-56
2021/04/30 00:39:02;;;;;;;2.50;1.63;;;15.30;54.50;;;;;;5092414;28;20418;-56
2021/04/30 00:41:28;;;;;;;3.97;1.50;;;15.30;54.60;;;;;;5092486;28;20521;-55
2021/04/30 00:43:54;;;;;;;2.78;1.45;;;15.30;54.60;;;;;;5091099;28;20138;-55
2021/04/30 00:46:20;;;;;;;2.28;0.85;;;15.20;54.60;;;;;;5093130;28;20036;-55
2021/04/30 00:48:45;;;;;;;2.75;1.25;;;15.20;54.50;;;;;;5096499;28;20069;-55
2021/04/30 00:51:11;;;;;;;3.03;1.60;;;15.20;54.60;;;;;;5095119;28;20036;-55
2021/04/30 00:53:36;;;;;;;3.90;1.60;;;15.20;54.60;;;;;;5096391;28;20021;-55
2021/04/30 00:56:02;;;;;;;1.92;1.33;;;15.20;54.60;;;;;;5096344;28;20055;-56
2021/04/30 00:58:28;;;;;;;1.83;1.10;;;15.20;54.70;;;;;;5096553;28;20450;-56
2021/04/30 01:00:54;;;;;;;1.90;1.40;;;15.20;54.70;;;;;;5094983;28;20059;-55
2021/04/30 01:03:20;;;;;;;1.50;1.30;;;15.20;54.60;;;;;;5096380;28;20027;-56
2021/04/30 01:05:46;;;;;;;2.10;1.35;;;15.20;54.70;;;;;;5094842;28;20392;-56
2021/04/30 01:08:11;;;;;;;2.80;1.23;;;15.20;54.70;;;;;;5096138;28;20061;-55
2021/04/30 01:10:37;;;;;;;2.65;1.30;;;15.20;54.70;;;;;;5096085;28;20031;-55
2021/04/30 01:13:03;;;;;;;1.83;1.20;;;15.20;54.80;;;;;;5096121;28;20031;-56
2021/04/30 01:15:28;;;;;;;2.53;1.40;;;15.20;55.40;;;;;;5096241;28;20468;-56
2021/04/30 01:17:54;;;;;;;2.67;1.35;;;15.20;54.80;;;;;;5096110;28;20030;-55
2021/04/30 01:20:20;;;;;;;1.85;1.17;;;15.20;54.90;;;;;;5095915;28;20411;-56
2021/04/30 01:22:49;;;;;;;2.38;1.35;;;14.90;54.70;;;;;;5095840;28;20376;-56
2021/04/30 01:25:20;;;;;;;2.95;1.25;;;15.20;54.90;;;;;;5096107;28;20105;-56
2021/04/30 01:27:46;;;;;;;2.35;1.13;;;15.50;55.00;;;;;;5095931;28;20027;-56
2021/04/30 01:30:15;;;;;;;3.35;1.40;;;15.10;54.80;;;;;;5096065;28;20027;-56
2021/04/30 01:32:41;;;;;;;4.63;1.48;;;15.10;54.80;;;;;;5095728;28;20050;-56
2021/04/30 01:35:09;;;;;;;2.55;1.65;;;15.10;54.80;;;;;;5095541;28;20079;-54
2021/04/30 01:37:35;;;;;;;4.97;1.75;;;15.10;54.90;;;;;;5095640;28;20044;-54
2021/04/30 01:40:00;;;;;;;2.97;1.30;;;15.10;54.90;;;;;;5095820;28;20027;-52
2021/04/30 01:42:26;;;;;;;2.55;1.33;;;15.10;54.90;;;;;;5095859;28;20069;-53
2021/04/30 01:44:52;;;;;;;2.90;1.35;;;15.10;54.90;;;;;;5095718;28;20501;-55
2021/04/30 01:47:18;;;;;;;3.60;1.60;;;15.50;55.20;;;;;;5095438;28;20515;-56
2021/04/30 01:49:45;;;;;;;2.42;1.40;;;15.10;55.00;;;;;;5077245;28;20062;-55
2021/04/30 01:52:11;;;;;;;2.45;1.30;;;15.10;55.00;;;;;;5095535;28;20020;-55
2021/04/30 01:54:37;;;;;;;2.92;1.30;;;15.10;55.60;;;;;;5095478;28;20118;-56
2021/04/30 01:57:03;;;;;;;1.92;1.35;;;15.10;55.00;;;;;;5094744;28;20098;-56
2021/04/30 01:59:29;;;;;;;1.27;1.10;;;15.10;55.00;;;;;;5095042;28;20032;-55
2021/04/30 02:01:54;;;;;;;2.10;1.30;;;15.10;55.10;;;;;;5095290;28;20012;-56
2021/04/30 02:04:20;;;;;;;4.68;1.33;;;14.90;55.00;;;;;;5095319;28;20039;-55
2021/04/30 02:06:46;;;;;;;2.28;1.33;;;15.10;55.10;;;;;;5095225;28;20062;-55
2021/04/30 02:09:12;;;;;;;2.75;1.65;;;15.00;55.00;;;;;;5095036;28;20258;-56
2021/04/30 02:11:38;;;;;;;2.13;0.98;;;15.00;55.10;;;;;;5094861;28;20043;-55
2021/04/30 02:14:05;;;;;;;2.45;1.50;;;15.00;55.00;;;;;;5095178;28;20020;-56
2021/04/30 02:16:32;;;;;;;3.20;1.15;;;15.00;55.10;;;;;;5095114;28;20020;-58
2021/04/30 02:18:59;;;;;;;3.30;1.17;;;15.00;55.10;;;;;;5094788;28;20049;-55
2021/04/30 02:21:24;;;;;;;1.67;1.10;;;14.90;55.00;;;;;;5094557;28;20024;-55
2021/04/30 02:23:50;;;;;;;1.33;1.05;;;15.10;55.80;;;;;;5094884;28;20024;-57
2021/04/30 02:26:16;;;;;;;2.40;1.10;;;15.00;55.10;;;;;;5094517;28;20563;-56
2021/04/30 02:28:46;;;;;;;1.75;1.08;;;14.80;55.00;;;;;;5094913;28;20033;-55
2021/04/30 02:31:15;;;;;;;3.13;1.15;;;15.00;55.10;;;;;;5094767;28;20404;-56
2021/04/30 02:33:44;;;;;;;1.65;1.00;;;15.20;55.30;;;;;;5093289;28;20024;-56
2021/04/30 02:36:10;;;;;;;3.97;1.50;;;15.00;55.20;;;;;;5093010;28;20040;-56
2021/04/30 02:38:36;;;;;;;2.45;1.23;;;15.00;55.20;;;;;;5094658;28;20016;-54
2021/04/30 02:41:03;;;;;;;2.92;1.30;;;14.90;55.20;;;;;;5094394;28;20020;-56
2021/04/30 02:43:29;;;;;;;1.60;1.05;;;15.00;55.20;;;;;;5092913;28;20472;-56
2021/04/30 02:45:57;;;;;;;1.80;1.00;;;14.90;55.20;;;;;;5094299;28;20042;-55
2021/04/30 02:48:28;;;;;;;3.03;1.70;;;14.90;55.30;;;;;;5094440;28;20026;-56
2021/04/30 02:50:55;;;;;;;2.40;1.20;;;15.00;55.30;;;;;;5094179;28;20030;-56
2021/04/30 02:53:20;;;;;;;2.17;1.20;;;14.90;55.30;;;;;;5094088;28;20023;-54
2021/04/30 02:55:46;;;;;;;4.78;1.10;;;14.90;55.30;;;;;;5094241;28;20025;-55
2021/04/30 02:58:13;;;;;;;3.08;0.95;;;14.90;55.30;;;;;;5093127;28;20585;-55
2021/04/30 03:00:39;;;;;;;1.88;1.33;;;14.50;55.20;;;;;;5093914;28;20024;-55
2021/04/30 03:03:05;;;;;;;2.55;1.08;;;14.90;55.40;;;;;;5093898;28;20086;-55
2021/04/30 03:05:31;;;;;;;1.88;0.80;;;14.90;55.30;;;;;;5093757;28;20035;-56
2021/04/30 03:07:57;;;;;;;2.17;1.17;;;14.90;55.30;;;;;;5092547;28;20430;-56
2021/04/30 03:10:23;;;;;;;1.30;1.00;;;15.00;55.40;;;;;;5091577;28;20024;-56
2021/04/30 03:12:48;;;;;;;3.50;1.10;;;14.90;56.00;;;;;;5093747;28;20069;-55
2021/04/30 03:15:15;;;;;;;2.25;1.15;;;14.90;55.40;;;;;;5093889;28;20024;-55
2021/04/30 03:17:42;;;;;;;2.50;1.20;;;14.90;55.30;;;;;;5093925;28;20100;-56
2021/04/30 03:20:09;;;;;;;3.65;1.02;;;14.90;55.40;;;;;;5093865;28;20111;-56
2021/04/30 03:22:35;;;;;;;1.75;1.10;;;14.90;55.50;;;;;;5093589;28;20035;-55
2021/04/30 03:25:00;;;;;;;2.70;1.42;;;14.90;55.40;;;;;;5093428;28;20035;-55
2021/04/30 03:27:27;;;;;;;2.58;0.93;;;14.90;55.40;;;;;;5093542;28;20380;-54
2021/04/30 03:29:54;;;;;;;3.03;1.23;;;15.00;55.50;;;;;;5093479;28;20061;-56
2021/04/30 03:32:20;;;;;;;3.90;1.10;;;15.10;55.60;;;;;;5092444;28;20028;-56
2021/04/30 03:34:46;;;;;;;2.55;1.30;;;14.90;55.50;;;;;;5093418;28;20393;-55
2021/04/30 03:37:11;;;;;;;1.75;0.90;;;14.90;55.60;;;;;;5093240;28;20036;-55
2021/04/30 03:39:37;;;;;;;1.55;0.98;;;14.90;55.50;;;;;;5093658;28;20027;-56
2021/04/30 03:42:03;;;;;;;1.85;1.15;;;14.90;55.50;;;;;;5093184;28;20438;-55
2021/04/30 03:44:28;;;;;;;3.15;1.30;;;14.90;55.50;;;;;;5093092;28;20102;-56
2021/04/30 03:46:54;;;;;;;1.45;0.90;;;14.80;55.50;;;;;;5093170;28;20040;-56
2021/04/30 03:49:20;;;;;;;2.88;1.15;;;14.80;55.50;;;;;;5093037;28;20020;-54
2021/04/30 03:51:46;;;;;;;1.30;0.90;;;14.90;78.70;;;;;;5092876;28;20016;-56
2021/04/30 03:54:11;;;;;;;2.72;1.30;;;14.50;55.50;;;;;;5093299;28;20024;-56
2021/04/30 03:56:37;;;;;;;2.25;1.55;;;15.30;55.90;;;;;;5092969;28;20461;-56
2021/04/30 03:59:03;;;;;;;2.38;0.98;;;14.80;55.60;;;;;;5092870;28;20017;-56
2021/04/30 04:01:28;;;;;;;1.35;1.20;;;14.80;77.80;;;;;;5092919;28;20449;-56
2021/04/30 04:03:54;;;;;;;1.38;0.98;;;15.30;55.90;;;;;;5092841;28;20027;-55
2021/04/30 04:06:20;;;;;;;3.35;0.98;;;14.60;55.50;;;;;;5092975;28;20085;-56
2021/04/30 04:08:46;;;;;;;2.15;0.90;;;14.80;55.70;;;;;;5091539;28;20432;-56
2021/04/30 04:11:11;;;;;;;1.95;1.02;;;14.80;55.70;;;;;;5092791;28;20057;-56
2021/04/30 04:13:37;;;;;;;3.28;1.00;;;15.10;55.80;;;;;;5092684;28;20480;-55
2021/04/30 04:16:03;;;;;;;2.45;1.10;;;14.80;55.60;;;;;;5092967;28;20023;-55
2021/04/30 04:18:29;;;;;;;3.38;1.00;;;14.80;55.60;;;;;;5092943;28;20028;-55
2021/04/30 04:20:55;;;;;;;4.85;1.15;;;15.30;56.00;;;;;;5092611;28;20020;-57
2021/04/30 04:23:21;;;;;;;2.30;1.05;;;14.90;55.70;;;;;;5092366;28;20433;-57
2021/04/30 04:25:46;;;;;;;1.52;1.17;;;14.80;55.70;;;;;;5092420;28;20036;-56
2021/04/30 04:28:12;;;;;;;1.42;0.95;;;14.80;55.50;;;;;;5092867;28;20028;-56
2021/04/30 04:30:38;;;;;;;2.83;1.00;;;14.80;55.60;;;;;;5092600;28;20034;-56
2021/04/30 04:33:04;;;;;;;2.85;1.10;;;14.80;55.80;;;;;;5092157;28;20024;-56
2021/04/30 04:35:30;;;;;;;2.47;1.25;;;14.80;55.90;;;;;;5092329;28;20393;-56
2021/04/30 04:37:56;;;;;;;2.20;1.50;;;;;;;;;;5092281;28;20696;-56
2021/04/30 04:40:22;;;;;;;5.63;1.23;;;14.80;55.50;;;;;;5092805;28;20313;-55
2021/04/30 04:42:48;;;;;;;2.53;1.10;;;14.80;56.20;;;;;;5092723;28;20016;-56
2021/04/30 04:45:16;;;;;;;2.10;1.00;;;14.80;56.20;;;;;;5092347;28;20035;-55
2021/04/30 04:47:42;;;;;;;4.63;1.30;;;14.80;56.40;;;;;;5091973;28;20028;-57
2021/04/30 04:50:09;;;;;;;2.92;1.38;;;14.60;56.30;;;;;;5092702;28;20032;-56
2021/04/30 04:52:35;;;;;;;3.55;1.27;;;14.80;56.40;;;;;;5092586;28;20024;-56
2021/04/30 04:55:01;;;;;;;3.08;1.20;;;14.40;56.20;;;;;;5092369;28;20357;-55
2021/04/30 04:57:27;;;;;;;1.85;1.08;;;14.70;56.40;;;;;;5092048;28;20430;-56
2021/04/30 04:59:52;;;;;;;3.25;1.30;;;14.70;56.40;;;;;;5092242;28;20024;-56
2021/04/30 05:02:18;;;;;;;1.58;1.00;;;14.70;56.40;;;;;;5091021;28;20384;-56
2021/04/30 05:04:45;;;;;;;2.88;1.13;;;15.30;56.60;;;;;;5092095;28;20069;-55
2021/04/30 05:07:10;;;;;;;2.63;1.40;;;14.70;56.40;;;;;;5091909;28;20040;-55
2021/04/30 05:09:36;;;;;;;3.35;1.02;;;14.70;56.30;;;;;;5092190;28;20020;-55
2021/04/30 05:12:02;;;;;;;1.67;1.05;;;14.70;56.30;;;;;;5091158;28;20099;-56
2021/04/30 05:14:27;;;;;;;3.90;1.40;;;14.70;56.40;;;;;;5092457;28;20402;-56
2021/04/30 05:16:53;;;;;;;3.35;1.45;;;14.70;56.30;;;;;;5091987;28;20069;-55
2021/04/30 05:19:18;;;;;;;4.07;1.50;;;14.70;56.40;;;;;;5092070;28;20065;-56
2021/04/30 05:21:46;;;;;;;2.20;0.95;;;14.70;56.30;;;;;;5091959;28;20484;-56
2021/04/30 05:24:13;;;;;;;1.52;0.90;;;14.70;56.40;;;;;;5092019;28;20483;-56
2021/04/30 05:26:39;;;;;;;4.30;0.98;;;14.70;56.30;;;;;;5091656;28;20032;-56
2021/04/30 05:29:05;;;;;;;3.53;1.08;;;14.70;56.30;;;;;;5090598;28;20117;-56
2021/04/30 05:31:32;;;;;;;1.67;1.15;;;14.70;56.40;;;;;;5092052;28;20035;-55
2021/04/30 05:33:58;;;;;;;2.88;1.15;;;14.70;56.30;;;;;;5095131;28;20019;-56
2021/04/30 05:36:24;;;;;;;2.63;1.30;;;14.70;56.40;;;;;;5095144;28;20048;-56
2021/04/30 05:38:50;;;;;;;2.47;1.08;;;14.70;56.40;;;;;;5095665;28;20097;-56
2021/04/30 05:41:16;;;;;;;1.10;0.80;;;14.70;56.40;;;;;;5095779;28;20024;-57
2021/04/30 05:43:41;;;;;;;3.28;1.20;;;14.70;56.40;;;;;;5094257;28;20035;-56
2021/04/30 05:46:07;;;;;;;2.83;1.05;;;14.60;56.30;;;;;;5095608;28;20064;-55
2021/04/30 05:48:33;;;;;;;3.25;1.23;;;14.70;56.40;;;;;;5095393;28;20016;-55
2021/04/30 05:50:58;;;;;;;1.60;0.95;;;14.50;56.30;;;;;;5095283;28;20036;-55
2021/04/30 05:53:24;;;;;;;1.83;1.27;;;15.20;56.70;;;;;;5095592;28;20034;-56
2021/04/30 05:55:50;;;;;;;1.33;0.93;;;14.70;56.50;;;;;;5095129;28;20284;-56
2021/04/30 05:58:16;;;;;;;2.60;1.33;;;14.60;56.50;;;;;;5095196;28;20694;-56
2021/04/30 06:00:41;;;;;;;5.22;1.10;;;14.60;56.50;;;;;;5095116;28;20028;-55
2021/04/30 06:03:07;;;;;;;2.72;1.02;;;14.60;56.60;;;;;;5095164;28;20016;-54
2021/04/30 06:05:33;;;;;;;3.17;1.35;;;14.60;56.60;;;;;;5093567;28;20472;-56
2021/04/30 06:07:59;;;;;;;1.27;1.05;;;14.60;56.60;;;;;;5093676;28;20020;-55
2021/04/30 06:10:24;;;;;;;1.35;0.95;;;14.60;56.60;;;;;;5095202;28;20028;-55
2021/04/30 06:12:50;;;;;;;1.33;1.05;;;14.60;56.60;;;;;;5095159;28;20537;-56
2021/04/30 06:15:16;;;;;;;1.58;1.08;;;14.60;56.60;;;;;;5093951;28;20024;-55
2021/04/30 06:17:41;;;;;;;4.43;1.05;;;14.60;56.60;;;;;;5094817;28;20384;-56
2021/04/30 06:20:08;;;;;;;2.92;1.25;;;14.90;79.00;;;;;;5094956;28;20059;-55
2021/04/30 06:22:33;;;;;;;2.03;1.02;;;14.60;56.70;;;;;;5094699;28;20027;-56
2021/04/30 06:24:59;;;;;;;2.90;1.33;;;14.50;56.60;;;;;;5094582;28;20032;-56
2021/04/30 06:27:25;;;;;;;2.72;1.38;;;14.60;56.70;;;;;;5094839;28;20020;-55
2021/04/30 06:29:51;;;;;;;1.08;0.90;;;15.10;57.00;;;;;;5093429;28;20094;-55
2021/04/30 06:32:17;;;;;;;2.17;0.90;;;14.60;56.80;;;;;;5094439;28;20035;-56
2021/04/30 06:34:42;;;;;;;3.30;1.02;;;15.00;57.60;;;;;;5094169;28;20043;-56
2021/04/30 06:37:08;;;;;;;3.50;1.00;;;14.70;56.90;;;;;;5094342;28;20051;-56
2021/04/30 06:39:34;;;;;;;2.53;0.95;;;14.60;56.90;;;;;;5094423;28;20028;-56
2021/04/30 06:42:02;;;;;;;2.30;1.30;;;14.60;56.90;;;;;;5094341;28;20103;-55
2021/04/30 06:44:29;;;;;;;2.05;1.05;;;14.60;56.90;;;;;;5094163;28;20024;-53
2021/04/30 06:46:55;;;;;;;2.25;1.10;;;14.60;56.90;;;;;;5093206;28;20032;-55
2021/04/30 06:49:21;;;;;;;3.65;1.48;;;14.60;57.00;;;;;;5094123;28;20100;-55
2021/04/30 06:51:48;;;;;;;2.55;1.05;;;15.00;57.20;;;;;;5094097;28;20051;-55
2021/04/30 06:54:14;;;;;;;2.28;1.10;;;14.60;56.90;;;;;;5094023;28;20058;-55
2021/04/30 06:56:40;;;;;;;2.28;1.13;;;14.70;57.00;;;;;;5075784;28;20051;-55
2021/04/30 06:59:05;;;;;;;1.40;1.13;;;14.60;56.90;;;;;;5092614;28;20069;-55
2021/04/30 07:01:31;;;;;;;4.15;1.20;;;14.70;56.80;;;;;;5094125;28;20070;-56
2021/04/30 07:03:56;;;;;;;3.53;1.00;;;14.60;56.80;;;;;;5093876;28;20384;-56
2021/04/30 07:06:22;;;;;;;1.38;1.00;;;14.60;56.90;;;;;;5093718;28;20081;-54
2021/04/30 07:08:50;;;;;;;2.25;1.25;;;14.70;56.90;;;;;;5094079;28;20483;-56
2021/04/30 07:11:15;;;;;;;1.70;1.20;;;14.60;56.90;;;;;;5093795;28;20150;-56
2021/04/30 07:13:41;;;;;;;2.10;1.00;;;14.60;56.90;;;;;;5093921;28;20048;-54
2021/04/30 07:16:07;;;;;;;1.73;1.20;;;14.60;56.90;;;;;;5094009;28;20012;-55
2021/04/30 07:18:33;;;;;;;2.45;0.90;;;14.70;57.00;;;;;;5093740;28;20031;-56
2021/04/30 07:21:00;;;;;;;1.42;0.95;;;14.60;57.00;;;;;;5093831;28;20090;-54
2021/04/30 07:23:26;;;;;;;2.42;1.00;;;14.60;57.00;;;;;;5093940;28;20099;-54
2021/04/30 07:25:52;;;;;;;2.58;1.15;;;14.60;57.10;;;;;;5093840;28;20326;-55
2021/04/30 07:28:18;;;;;;;1.90;1.00;;;14.40;57.00;;;;;;5093590;28;20297;-55
2021/04/30 07:30:43;;;;;;;1.52;0.88;;;14.50;56.90;;;;;;5093552;28;20039;-54
2021/04/30 07:33:09;;;;;;;1.98;1.23;;;14.60;56.80;;;;;;5093661;28;20020;-54
2021/04/30 07:35:35;;;;;;;4.65;1.27;;;14.70;56.80;;;;;;5093226;28;20048;-56
2021/04/30 07:38:01;;;;;;;8.38;1.42;;;14.70;57.60;;;;;;5093805;28;20056;-55
2021/04/30 07:40:27;;;;;;;3.17;1.25;;;14.80;80.40;;;;;;5093361;28;20027;-56
2021/04/30 07:42:52;;;;;;;4.45;1.30;;;14.50;57.20;;;;;;5093211;28;20012;-55
2021/04/30 07:45:18;;;;;;;3.92;1.52;;;14.60;79.70;;;;;;5093046;28;20032;-56
2021/04/30 07:47:44;;;;;;;3.90;1.60;;;14.70;57.50;;;;;;5093051;28;20111;-55
2021/04/30 07:50:10;;;;;;;3.15;1.80;;;14.70;57.50;;;;;;5093235;28;20460;-57
2021/04/30 07:52:35;;;;;;;4.30;1.65;;;14.70;57.60;;;;;;5093238;28;20028;-56
2021/04/30 07:55:02;;;;;;;5.43;2.10;;;14.70;57.60;;;;;;5092810;28;20039;-56
2021/04/30 07:57:29;;;;;;;4.57;1.83;;;14.70;57.70;;;;;;5092844;28;20530;-55
2021/04/30 07:59:55;;;;;;;5.32;1.50;;;14.70;57.80;;;;;;5092792;28;20032;-55
2021/04/30 08:02:21;;;;;;;5.07;1.85;;;14.90;57.90;;;;;;5092871;28;20537;-56
2021/04/30 08:04:47;;;;;;;4.22;1.90;;;14.70;57.90;;;;;;5091514;28;20020;-56
2021/04/30 08:07:14;;;;;;;3.08;1.50;;;14.80;57.90;;;;;;5075000;28;20103;-57
2021/04/30 08:09:40;;;;;;;3.20;1.60;;;14.70;57.80;;;;;;5093132;28;20021;-55
2021/04/30 08:12:05;;;;;;;4.22;1.90;;;14.70;57.90;;;;;;5093122;28;20020;-56
2021/04/30 08:14:31;;;;;;;2.55;1.55;;;14.70;57.90;;;;;;5092970;28;20079;-55
2021/04/30 08:16:57;;;;;;;2.47;1.50;;;14.60;57.90;;;;;;5092657;28;20099;-55
2021/04/30 08:19:24;;;;;;;6.35;1.70;;;14.60;79.90;;;;;;5092635;28;20024;-55
2021/04/30 08:21:50;;;;;;;7.57;2.10;;;14.30;57.80;;;;;;5091430;28;20020;-56
2021/04/30 08:24:15;;;;;;;4.85;1.95;;;14.70;57.90;;;;;;5092501;28;20528;-56
2021/04/30 08:26:41;;;;;;;4.85;2.05;;;14.70;57.90;;;;;;5092389;28;20032;-54
2021/04/30 08:29:06;;;;;;;4.45;1.70;;;14.70;57.90;;;;;;5092530;28;20016;-56
2021/04/30 08:31:32;;;;;;;3.58;2.08;;;14.70;57.90;;;;;;5092454;28;20056;-55
2021/04/30 08:33:58;;;;;;;7.85;2.30;;;14.70;57.70;;;;;;5092903;28;20020;-56
2021/04/30 08:36:24;;;;;;;6.93;2.78;;;14.80;80.30;;;;;;5092326;28;20048;-54
2021/04/30 08:38:49;;;;;;;5.65;2.42;;;14.70;57.80;;;;;;5091515;28;20016;-54
2021/04/30 08:41:18;;;;;;;6.47;2.30;;;14.70;57.70;;;;;;5092515;28;20150;-54
2021/04/30 08:43:45;;;;;;;6.43;2.33;;;14.20;57.60;;;;;;5092450;28;20028;-56
2021/04/30 08:46:12;;;;;;;4.38;2.40;;;14.70;57.70;;;;;;5092341;28;20567;-55
2021/04/30 08:48:38;;;;;;;9.32;2.50;;;14.70;57.70;;;;;;5091134;28;20078;-56
2021/04/30 08:51:04;;;;;;;9.43;2.72;;;14.70;57.80;;;;;;5092617;28;20086;-55
2021/04/30 08:53:30;;;;;;;5.88;2.38;;;14.70;57.80;;;;;;5092585;28;20020;-56
2021/04/30 08:55:58;;;;;;;3.55;2.20;;;14.60;57.90;;;;;;5092255;28;20035;-55
2021/04/30 08:58:26;;;;;;;6.20;2.45;;;14.60;57.80;;;;;;5092599;28;20027;-56
2021/04/30 09:00:53;;;;;;;5.88;2.60;;;14.60;57.90;;;;;;5092261;28;20020;-55
2021/04/30 09:03:19;;;;;;;10.15;2.63;;;14.60;57.90;;;;;;5092354;28;20034;-54
2021/04/30 09:05:50;;;;;;;5.65;2.72;;;14.60;58.00;;;;;;5092399;28;20032;-55
2021/04/30 09:08:17;;;;;;;5.28;2.60;;;14.60;57.90;;;;;;5094964;28;20112;-54
2021/04/30 09:10:49;;;;;;;7.05;2.63;;;14.60;57.90;;;;;;5096491;28;20050;-53
2021/04/30 09:13:20;;;;;;;6.93;2.78;;;14.60;80.50;;;;;;5096455;28;20020;-54
2021/04/30 09:15:48;;;;;;;4.90;2.30;;;14.60;58.60;;;;;;5094956;28;20048;-54
2021/04/30 09:18:18;;;;;;;6.65;2.80;;;14.60;57.90;;;;;;5094770;28;20027;-55
2021/04/30 09:20:47;;;;;;;7.15;2.38;;;14.50;57.90;;;;;;5096007;28;20070;-56
2021/04/30 09:23:43;;;;;;;5.72;2.53;;;14.50;58.00;;;;;;5096006;28;20023;-55
2021/04/30 09:26:35;;;;;;;3.15;2.70;;;14.60;57.90;;;;;;5094530;28;20039;-56
2021/04/30 09:29:09;;;;;;;4.15;2.55;;;14.50;57.90;;;;;;5095790;28;20020;-55
2021/04/30 09:31:40;;;;;;;3.97;2.78;;;14.50;58.00;;;;;;5096330;28;20353;-55
2021/04/30 09:34:25;;;;;;;7.07;2.80;;;14.60;58.00;;;;;;5094604;28;20103;-55
2021/04/30 09:37:12;;;;;;;4.75;2.70;;;14.60;58.00;;;;;;5095737;28;20039;-56
2021/04/30 09:39:59;;;;;;;6.93;2.58;;;14.60;57.90;;;;;;5095642;28;20476;-55
2021/04/30 09:42:27;;;;;;;3.30;2.63;;;14.60;57.80;;;;;;5095880;28;20028;-55
2021/04/30 09:44:57;;;;;;;6.20;2.85;;;14.60;57.80;;;;;;5095522;28;20563;-56
2021/04/30 09:47:25;;;;;;;6.43;2.42;;;14.60;57.80;;;;;;5095524;28;20487;-55
2021/04/30 09:49:53;;;;;;;5.88;2.95;;;14.60;57.80;;;;;;5095619;28;20090;-56
2021/04/30 09:52:20;;;;;;;3.80;2.47;;;14.60;57.80;;;;;;5095497;28;20043;-54
2021/04/30 09:54:47;;;;;;;3.75;2.60;;;14.60;58.00;;;;;;5095435;28;20024;-56
2021/04/30 09:57:19;;;;;;;5.45;2.63;;;14.60;58.00;;;;;;5094160;28;20050;-56
2021/04/30 10:00:12;;;;;;;4.28;2.88;;;14.60;58.00;;;;;;5095517;28;20043;-56
2021/04/30 10:02:38;;;;;;;6.30;2.92;;;14.60;57.90;;;;;;5095228;28;20103;-55
2021/04/30 10:05:09;;;;;;;4.18;2.60;;;14.40;57.70;;;;;;5093872;28;20541;-55
2021/04/30 10:07:39;;;;;;;4.43;2.22;;;14.60;57.60;;;;;;5095416;28;20020;-56
2021/04/30 10:10:09;;;;;;;3.88;2.47;;;14.70;57.60;;;;;;5095125;28;20400;-55
2021/04/30 10:12:37;;;;;;;3.70;2.60;;;14.70;57.90;;;;;;5095067;28;20043;-55
2021/04/30 10:15:03;;;;;;;4.07;2.67;;;14.70;58.20;;;;;;5095192;28;20024;-55
2021/04/30 10:17:29;;;;;;;5.15;2.47;;;14.70;57.80;;;;;;5094875;28;20066;-56
2021/04/30 10:19:56;;;;;;;3.92;2.40;;;14.70;57.60;;;;;;5094446;28;20052;-55
2021/04/30 10:22:24;;;;;;;5.20;2.47;;;14.80;57.70;;;;;;5094817;28;20440;-55
2021/04/30 10:24:57;;;;;;;6.82;2.92;;;14.80;57.60;;;;;;5095039;28;20020;-56
2021/04/30 10:27:29;;;;;;;3.67;2.45;;;14.80;57.80;;;;;;5094866;28;20429;-54
2021/04/30 10:30:13;;;;;;;5.00;2.47;;;14.40;57.60;;;;;;5095021;28;20069;-55
2021/04/30 10:32:51;;;;;;;4.60;2.70;;;14.80;57.80;;;;;;5094575;28;20038;-56
2021/04/30 10:35:26;;;;;;;4.22;2.80;;;14.80;58.00;;;;;;5094509;28;20036;-56
2021/04/30 10:37:58;;;;;;;4.13;2.50;;;14.80;57.90;;;;;;5094915;28;20056;-56
2021/04/30 10:40:23;;;;;;;4.90;3.05;;;14.80;57.80;;;;;;5094612;28;20024;-55
2021/04/30 10:42:49;;;;;;;3.42;2.15;;;14.70;57.90;;;;;;5094551;28;20043;-56
2021/04/30 10:45:17;;;;;;;4.03;2.47;;;14.80;57.80;;;;;;5094384;28;20047;-56
2021/04/30 10:48:02;;;;;;;4.90;2.60;;;14.70;57.90;;;;;;5094559;28;20024;-54
2021/04/30 10:50:28;;;;;;;3.80;2.17;;;14.80;57.90;;;;;;5094545;28;20028;-54
2021/04/30 10:53:13;;;;;;;4.30;2.58;;;14.80;57.80;;;;;;5092847;28;20023;-53
2021/04/30 10:55:41;;;;;;;3.88;2.53;;;14.80;57.70;;;;;;5094213;28;20036;-52
2021/04/30 10:58:06;;;;;;;5.05;2.08;;;14.80;57.90;;;;;;5094087;28;20502;-54
2021/04/30 11:00:35;;;;;;;3.45;2.42;;;14.80;58.30;;;;;;5092956;28;20019;-58
2021/04/30 11:03:16;;;;;;;8.05;2.40;;;14.90;58.40;;;;;;5092786;28;20448;-53
2021/04/30 11:05:56;;;;;;;5.82;2.70;;;14.90;58.70;;;;;;5094015;28;20035;-55
2021/04/30 11:08:45;;;;;;;3.88;2.60;;;15.00;59.20;;;;;;5094234;28;20032;-56
2021/04/30 11:11:11;;;;;;;3.75;2.83;;;15.10;61.00;;;;;;5093936;28;20019;-55
2021/04/30 11:13:36;;;;;;;10.35;2.60;;;14.90;61.10;;;;;;5094035;28;20379;-55
2021/04/30 11:16:02;;;;;;;7.18;2.95;;;15.20;61.10;;;;;;5093790;28;20032;-56
2021/04/30 11:18:30;;;;;;;10.35;2.47;;;15.30;62.50;;;;;;5093845;28;20043;-56
2021/04/30 11:21:05;;;;;;;8.10;2.45;;;15.30;62.80;;;;;;5093649;28;20543;-56
2021/04/30 11:23:52;;;;;;;3.95;2.35;;;15.20;62.30;;;;;;5093944;28;20028;-54
2021/04/30 11:26:19;;;;;;;4.57;2.83;;;15.20;63.20;;;;;;5093612;28;20040;-55
2021/04/30 11:28:45;;;;;;;4.70;2.58;;;15.50;63.90;;;;;;5093887;28;20123;-56
2021/04/30 11:31:12;;;;;;;5.07;2.33;;;15.50;64.50;;;;;;5091602;28;20496;-55
2021/04/30 11:34:15;;;;;;;6.32;2.10;;;15.60;64.60;;;;;;5093760;28;20038;-56
2021/04/30 11:36:42;;;;;;;5.05;2.25;;;15.60;65.20;;;;;;5093231;28;20083;-55
2021/04/30 11:39:21;;;;;;;2.90;2.10;;;15.60;65.50;;;;;;5093332;28;20035;-55
2021/04/30 11:41:48;;;;;;;3.08;2.30;;;15.70;65.60;;;;;;5093232;28;20032;-55
2021/04/30 11:44:19;;;;;;;3.45;2.33;;;15.70;65.90;;;;;;5093242;28;20020;-56
2021/04/30 11:46:50;;;;;;;4.70;2.00;;;15.70;65.50;;;;;;5091860;28;20036;-55
2021/04/30 11:49:19;;;;;;;5.20;2.63;;;15.80;65.90;;;;;;5093064;28;20023;-55
2021/04/30 11:51:47;;;;;;;4.63;2.28;;;16.30;66.20;;;;;;5093113;28;20502;-56
2021/04/30 11:54:18;;;;;;;2.70;1.73;;;15.90;67.20;;;;;;5093361;28;20020;-56
2021/04/30 11:56:45;;;;;;;2.50;2.20;;;15.90;89.00;;;;;;5092110;28;20023;-55
2021/04/30 11:59:19;;;;;;;3.83;1.88;;;15.90;67.70;;;;;;5093209;28;20421;-56
2021/04/30 12:02:04;;;;;;;3.00;2.20;;;16.00;68.00;;;;;;5092787;28;20024;-55
2021/04/30 12:04:51;;;;;;;2.15;1.77;;;16.00;68.00;;;;;;5093178;28;20489;-55
2021/04/30 12:07:18;;;;;;;2.75;2.03;;;16.10;68.10;;;;;;5093210;28;20028;-54
2021/04/30 12:09:45;;;;;;;4.18;1.80;;;16.20;68.20;;;;;;5091578;28;20016;-55
2021/04/30 12:12:23;;;;;;;1.55;1.40;;;16.30;68.30;;;;;;5092775;28;20032;-54
2021/04/30 12:14:52;;;;;;;1.75;1.60;;;16.40;68.20;;;;;;5093379;28;20030;-56
2021/04/30 12:17:25;;;;;;;3.47;2.00;;;16.50;68.30;;;;;;5092808;28;20095;-56
2021/04/30 12:20:05;;;;;;;3.72;1.92;;;16.50;68.30;;;;;;5092859;28;20012;-56
2021/04/30 12:22:32;;;;;;;1.60;1.50;;;16.60;68.20;;;;;;5092979;28;20047;-56
2021/04/30 12:25:16;;;;;;;1.70;1.48;;;16.60;69.00;;;;;;5092828;28;20016;-55
2021/04/30 12:27:42;;;;;;;2.42;1.77;;;16.60;70.40;;;;;;5092546;28;20032;-56
2021/04/30 12:30:08;;;;;;;2.88;2.00;;;16.70;71.60;;;;;;5092605;28;20027;-56
2021/04/30 12:32:34;;;;;;;3.15;1.73;;;16.70;70.90;;;;;;5092580;28;20020;-54
2021/04/30 12:35:00;;;;;;;2.13;1.80;;;16.80;70.30;;;;;;5092531;28;20561;-56
2021/04/30 12:37:25;;;;;;;2.20;1.50;;;16.90;69.80;;;;;;5092533;28;20537;-56
2021/04/30 12:39:51;;;;;;;1.88;1.40;;;17.00;69.30;;;;;;5092719;28;20020;-56
2021/04/30 12:42:19;;;;;;;1.95;1.20;;;17.10;69.00;;;;;;5094901;28;20012;-56
2021/04/30 12:44:56;;;;;;;1.95;1.38;;;17.20;68.80;;;;;;5096470;28;20124;-57
2021/04/30 12:47:26;;;;;;;1.50;1.40;;;17.30;68.50;;;;;;5096876;28;20035;-54
2021/04/30 12:49:53;;;;;;;1.75;1.52;;;17.30;68.30;;;;;;5096539;28;20451;-56